Terminal Aerodrome Forecast
Issued by NWS Nashville, TN

Home | Current Version | Previous Version | Text Only | Print | Product List | Glossary On
Versions: 1 2 3 4 5 6 7 8 9 10 11 12 13 14 15
178
FTUS44 KOHX 132320
TAFBNA
TAF
KBNA 132320Z 1400/1424 04006KT P6SM OVC100
     FM141200 10009KT P6SM VCSH OVC060
     FM141600 16010G18KT 6SM -SHSN BR OVC040
     FM142100 17010G18KT 4SM -SHSN BR OVC030=

USA.gov is the U.S. government's official web portal to all federal, state and local government web resources and services.